Terminal Aerodrome Forecast
Issued by NWS

Home | Current Version | Previous Version | Text Only | Print | Product List | Glossary On
Versions: 1 2 3 4 5 6 7 8 9 10 11 12 13 14 15 16 17 18 19 20 21 22 23 24 25 26 27 28
000
FTUS45 KRIW 261121
TAFPNA
TAF
KPNA 261121Z 2612/2712 31005KT P6SM VCFG FEW004
     FM261700 16006KT P6SM SCT070 BKN150
     FM262200 24008KT P6SM VCSH SCT040 BKN070
     FM270800 VRB06KT 4SM -SHSN SCT015 OVC030
      AMD LTD TO CLD VIS AND WIND=

USA.gov is the U.S. government's official web portal to all federal, state and local government web resources and services.